Aeroporto :
LOGIN :

Iscrizione | Disclaimer

   EN    FR    IT 

 










Sommario :    VFR   VFR Marginale   IFR   IFR Intensivo   IFR Molto Intensivo
Visibilità : 
Base nubi : 
>= 8 km
>= 3000ft
5 / 8 km
1000 / 3000 ft
1500m / 5 km
500 / 1000 ft
800 / 1500m
200 / 500 ft
< 800m
< 200 ft
Simboli :   Temporali  Nebbia  Neve Forte  Precipitazioni Forti  Vento > 20 kt
SIGMETs :   Varie  Temporali  Ghiacco  Turbolenza  Onda orograficha  Ceneri Vulcaniche







- Altitudine del aeroporto : 16 ft
- Codice IATA : SDR


LEXJ - Santander Cantabria

ULTIMO METAR :
  • 241500Z 34007KT 290V020 9999 FEW016 16/12 Q1026

METARs OBSOLETI :
  • 241430Z 31005KT 270V010 9999 FEW016 17/13 Q1026
  • 241400Z 34006KT 290V030 9999 FEW016 17/12 Q1026
  • 241330Z 01006KT 340V060 9999 FEW016 17/12 Q1026
  • 241300Z 36005KT 320V030 9999 FEW016 17/12 Q1026
  • 241230Z 34006KT 300V030 9999 FEW016 17/12 Q1027

TAF TAF LEXJ
Valido dal 24 a 15 ore il 25 a 15 ore UTC


241400Z 2415/2515 32007KT 9000 FEW015 TX16/2415Z TN08/2506Z
PROB30
TEMPO 2416/2419 02010KT 4500 BR
TEMPO 2419/2510 3000 BR
PROB30
TEMPO 2419/2422 1500 BCFG BKN003
TEMPO 2422/2507 1000 BCFG BKN003
PROB40
TEMPO 2422/2506 0500 FG BKN001
PROB40
TEMPO 2506/2509 1500 -RADZ BCFG BKN005
BECMG 2511/2513 04010KT
Nessun NOTAM noto per questo aeroporto.



MetMap, La meteo Aeronautica in un colpo d'occhio ! - Copyright ORBIFLY Dicembre 2007 - Disclaimer

ORBIFLY MET'MAP TEAM :

Programmazione e sviluppo : Alexandra Zaïnal
Concezione e sviluppo : Baudouin d'Aumeries
Co-Programmazione e sviluppo : Marc-Olivier Méhu
Supporto tecnico e logistico : Manuel Goepfert
Aiuto per la traduzione : Arnaldo La Scala

Contatto : metmap@orbifly.com




FONTI E CREDITI :

   NOAA